Portada
METAR-TAF:

METAR-TAF

Aeropuertos :

Aeropuerto de Sion

Sion, Suiza

latitud: 46-13N, longitud: 007-20E, altitud: 482 m

Observación

El informe se hizo hace 16 minutos, a las 14:20 UTC
Viento 4 kt del oeste-suroeste
Temperatura 6°C
Humedad 56%
Presión 1021 hPa
Visibilidad 10 km o más
Nubes dispersas a una altura de 8000 ft

METAR: LSGS 171420Z 25004KT 9999 SCT080 06/M02 Q1021

Hora: 15:36 (14:36 UTC)

Pronóstico

El informe se hizo hace 3 horas y 11 minutos, a las 11:25 UTC
Pronóstico válido del 17 a las 12 UTC al 17 a las 21 UTC
Viento 3 kt con dirección variable
Visibilidad 10 km o más
Cielo nuboso a una altura de 7000 ft
Temporalmente
del 17 a las 15 UTC al 17 a las 21 UTC
lluvia

TAF: LSGS 171125Z 1712/1721 VRB03KT 9999 BKN070 TEMPO 1715/1721 RA

Observaciones y pronósticos meteorológicos de más de 4000 aeropuertos (mensajes METAR y TAF).

Los puntos amarillos y rojos representan las estaciones disponibles.

Ponga el ratón en el punto deseado para ver el nombre de la estación.

Haga clic para ver las observaciones y los pronósticos meteorológicos.

Para cambiar el mapa : haga clic en los botones verdes con una cruz de color negro para hacer un zoom, en el botón verde con un guión para alejar o en las flechas verdes para mapas adyacentes.


METAR-TAF: